BRLK1: Neosho River, Burlington, KS

Data processed at Fri Jun 05 2020 22:55


All information presented herein is the property of the government of the United States of America and may be revised or deleted at any time without prior notice.
Dissemination of this information without the expressed written consent of the Public Affairs Office, Tulsa District U.S. Army Corps of Engineers is strictly prohibited.
These data are gathered electronically and, as presented, have not undergone any form of quality control. These data are not guaranteed to be valid or correct.
Go to home page.
Go to station list.
Go to home page.

Upstream stations:

Downstream station:
Previous Day
Next Day
Current Day
    
SHEF ID:       BRLK1     Neosho River, Burlington, KS
STATION TYPE:  
Regulating: Stage =    23.00, Flow =    16777

               PRECIP     STAGE  RIV-FLOW  BAT-LOAD
                   in        ft       cfs      volt
              Ccp-Rev   Ccp-Rev   Ccp-Rev   Ccp-Rev
(US/Central)
06/05 00:00      0.00     14.22      7662     12.77
06/05 01:00      0.00     14.20      7640     12.77
06/05 02:00      0.00     14.18      7617     12.77
06/05 03:00      0.00     14.11      7539     12.77
06/05 04:00      0.00     14.17      7606     12.71
06/05 05:00      0.00     14.13      7561     12.71
06/05 06:00      0.00     14.13      7561     12.71
06/05 07:00      0.00     14.17      7606     12.65
06/05 08:00      0.00     14.06      7483     12.65
06/05 09:00      0.00     14.08      7505     12.83
06/05 10:00      0.00     14.07      7494     13.24
06/05 11:00      0.00     14.04      7460     13.18
06/05 12:00      0.00     14.07      7494     13.83
06/05 13:00      0.00     13.90      7304     13.36
06/05 14:00      0.00     13.97      7382     13.36
06/05 15:00      0.00     13.88      7282     13.24
06/05 16:00      0.00     13.88      7282     13.18
06/05 17:00      0.00     13.04      6362     13.12
06/05 18:00      0.00     12.33      5607     13.12
06/05 19:00      0.00     11.87      5130     13.07
06/05 20:00      0.00     11.79      5048     12.95
06/05 21:00      0.00     11.70      4956     12.89
06/05 22:00      ----      ----      ----      ----
06/05 23:00      ----      ----      ----      ----